Main page
METAR-TAF:

METAR-TAF

Airports :

Ashgabat International Airport

Ashgabat, Turkmenistan

latitude: 37-59N, longitude: 058-22E, elevation: 211 m

Current weather observation

The report was made 10 minutes ago, at 08:00 UTC
Wind 4 kt from the North/Northwest
Temperature 39°C
Humidity 10%
Pressure 1009 hPa
Visibility 10 km or more

METAR: UTAA 250800Z 33004KT 9999 NSC 39/02 Q1009 R88/CLRD70 NOSIG

Time: 13:10 (08:10 UTC)

Forecast

The report was made 2 hours and 15 minutes ago, at 05:55 UTC
Forecast valid from 25 at 06 UTC to 26 at 06 UTC
Wind 16 kt from the North/Northeast
Visibility: 6000 m
Scattered clouds at a height of 5000 ft
Temporary
from 25 at 06 UTC to 25 at 12 UTC
Wind 18 kt from the Northwest
Becoming
from 25 at 14 UTC to 25 at 16 UTC
Wind 14 kt from the Southwest

TAF: UTAA 250555Z 2506/2606 03016KT 6000 SCT050 TX41/2510Z 530009 TEMPO 2506/2512 32018KT BECMG 2514/2516 22014KT

Weather observations and forecasts of more than 4000 airports (METAR and TAF reports).

The available stations are represented by yellow and red dots on the map.

Hover mouse over dot to see the name of the station.

Then click to see weather observations and forecasts.

To change the map : click on the green buttons with a black cross to zoom in, on the green button with a dash to zoom out, or on the green arrows for adjacent maps.


METAR-TAF: